createdAt,value
2023-02-09T00:27:11.826Z,27.63
2023-02-09T00:29:38.830Z,28.43
2023-02-09T00:32:05.906Z,27.80
2023-02-09T00:34:33.015Z,27.37
2023-02-09T00:37:01.219Z,26.07
2023-02-09T00:39:29.556Z,25.50
2023-02-09T00:42:11.061Z,24.97
2023-02-09T00:44:40.289Z,24.53
2023-02-09T00:47:09.404Z,24.63
2023-02-09T00:49:36.998Z,24.87
2023-02-09T00:52:04.342Z,25.07
2023-02-09T00:54:31.637Z,24.60
2023-02-09T00:57:05.110Z,24.47
2023-02-09T00:59:35.495Z,23.60
2023-02-09T01:02:04.037Z,26.30
2023-02-09T01:04:31.548Z,25.53
2023-02-09T01:06:58.740Z,28.50
2023-02-09T01:09:26.073Z,29.40
2023-02-09T01:11:53.220Z,27.50
2023-02-09T01:14:20.380Z,26.70
2023-02-09T01:16:47.622Z,24.30
2023-02-09T01:19:14.692Z,25.17
2023-02-09T01:21:42.916Z,24.37
2023-02-09T01:24:14.842Z,24.57
2023-02-09T01:26:43.173Z,23.97
2023-02-09T01:29:15.171Z,25.23
2023-02-09T01:31:43.301Z,24.50
2023-02-09T01:34:17.305Z,25.60
2023-02-09T01:36:45.061Z,24.03
2023-02-09T01:39:13.890Z,22.60
2023-02-09T01:41:42.399Z,21.87
2023-02-09T01:44:16.622Z,23.07
2023-02-09T01:46:47.097Z,22.53
2023-02-09T01:49:22.607Z,23.87
2023-02-09T01:52:03.228Z,21.23
2023-02-09T01:54:45.820Z,25.53
2023-02-09T01:57:23.814Z,32.37
2023-02-09T01:59:57.842Z,29.83
2023-02-09T02:02:25.588Z,28.50
2023-02-09T02:04:53.959Z,25.67
2023-02-09T02:07:51.446Z,22.13
2023-02-09T02:10:19.029Z,21.67
2023-02-09T02:12:46.560Z,24.10
2023-02-09T02:15:13.818Z,20.73
2023-02-09T02:17:52.821Z,20.33
2023-02-09T02:20:41.621Z,20.60
2023-02-09T02:23:48.555Z,21.77
2023-02-09T02:26:59.809Z,22.37
2023-02-09T02:30:05.004Z,22.83
2023-02-09T02:33:30.253Z,20.27
2023-02-09T02:36:52.199Z,20.03
2023-02-09T02:39:58.233Z,20.10
2023-02-09T02:42:49.415Z,21.03
2023-02-09T02:45:32.244Z,19.53
2023-02-09T02:48:11.151Z,20.73
2023-02-09T02:50:46.750Z,19.63
2023-02-09T02:53:17.493Z,19.67
2023-02-09T02:55:47.312Z,17.27
2023-02-09T02:58:16.910Z,21.40
2023-02-09T03:00:49.290Z,19.20
2023-02-09T03:03:23.851Z,18.63
2023-02-09T03:05:51.599Z,18.87
2023-02-09T03:08:18.656Z,19.27
2023-02-09T03:10:46.503Z,20.10
2023-02-09T03:13:42.696Z,20.37
2023-02-09T03:16:44.356Z,19.27
2023-02-09T03:19:28.018Z,18.23
2023-02-09T03:22:09.678Z,19.17
2023-02-09T03:24:48.582Z,18.77
2023-02-09T03:27:20.448Z,18.23
2023-02-09T03:29:59.036Z,19.27
2023-02-09T03:32:26.646Z,20.23
2023-02-09T03:34:55.798Z,18.17
2023-02-09T03:37:23.996Z,20.07
2023-02-09T03:39:51.125Z,19.23
2023-02-09T03:42:19.177Z,18.47
2023-02-09T03:44:46.248Z,22.10
2023-02-09T03:47:13.423Z,21.57
2023-02-09T03:49:42.237Z,18.73
2023-02-09T03:52:13.683Z,17.73
2023-02-09T03:54:41.034Z,18.43
2023-02-09T03:57:09.117Z,18.23
2023-02-09T03:59:37.782Z,19.47
2023-02-09T04:02:08.449Z,18.47
2023-02-09T04:04:36.613Z,19.97
2023-02-09T04:07:04.566Z,19.27
2023-02-09T04:09:31.689Z,17.77
2023-02-09T04:11:58.748Z,19.03
2023-02-09T04:14:25.860Z,18.30
2023-02-09T04:16:52.925Z,18.50
2023-02-09T04:19:20.079Z,19.60
2023-02-09T04:21:47.361Z,20.50
2023-02-09T04:24:15.181Z,18.87
2023-02-09T04:26:42.280Z,18.50
2023-02-09T04:29:09.388Z,18.00
2023-02-09T04:31:36.551Z,18.27
2023-02-09T04:34:04.024Z,17.63
2023-02-09T04:36:31.202Z,20.00
2023-02-09T04:38:58.465Z,18.83
2023-02-09T04:41:25.656Z,18.87
2023-02-09T04:43:52.792Z,19.27
2023-02-09T04:46:20.347Z,18.70
2023-02-09T04:48:47.500Z,19.13
2023-02-09T04:51:14.936Z,19.23
2023-02-09T04:53:42.148Z,19.60
2023-02-09T04:56:15.103Z,17.83
2023-02-09T04:59:02.231Z,19.80
2023-02-09T05:01:30.201Z,18.80
2023-02-09T05:03:57.432Z,20.47
2023-02-09T05:06:24.577Z,19.97
2023-02-09T05:08:51.657Z,19.70
2023-02-09T05:11:18.949Z,19.43
2023-02-09T05:13:47.504Z,20.93
2023-02-09T05:16:17.805Z,19.10
2023-02-09T05:18:45.049Z,18.47
2023-02-09T05:21:14.234Z,19.10
2023-02-09T05:23:45.848Z,18.93
2023-02-09T05:26:12.907Z,19.00
2023-02-09T05:28:40.006Z,18.90
2023-02-09T05:31:07.141Z,18.40
2023-02-09T05:33:34.296Z,18.83
2023-02-09T05:36:01.397Z,18.57
2023-02-09T05:38:28.507Z,21.70
2023-02-09T05:40:55.544Z,16.50
2023-02-09T05:43:22.602Z,18.20
2023-02-09T05:45:49.663Z,19.13
2023-02-09T05:48:16.718Z,21.23
2023-02-09T05:50:43.984Z,23.40
2023-02-09T05:53:11.262Z,37.70
2023-02-09T05:55:38.318Z,53.40
2023-02-09T05:58:05.523Z,38.50
2023-02-09T06:00:32.891Z,32.33
2023-02-09T06:03:00.088Z,34.50
2023-02-09T06:05:28.156Z,30.10
2023-02-09T06:07:55.485Z,31.63
2023-02-09T06:10:22.744Z,19.20
2023-02-09T06:12:49.874Z,32.83
2023-02-09T06:15:17.064Z,25.37
2023-02-09T06:17:44.631Z,31.47
2023-02-09T06:20:12.381Z,36.90
2023-02-09T06:22:39.533Z,25.97
2023-02-09T06:25:06.950Z,29.20
2023-02-09T06:27:34.094Z,24.83
2023-02-09T06:30:01.148Z,28.43
2023-02-09T06:32:28.237Z,30.70
2023-02-09T06:34:55.268Z,23.63
2023-02-09T06:37:22.772Z,29.50
2023-02-09T06:39:49.844Z,23.73
2023-02-09T06:42:16.926Z,23.23
2023-02-09T06:44:44.199Z,22.50
2023-02-09T06:47:11.362Z,21.07
2023-02-09T06:49:38.391Z,20.47
2023-02-09T06:52:05.918Z,20.40
2023-02-09T06:54:33.280Z,20.33
2023-02-09T06:57:00.533Z,20.13
2023-02-09T06:59:27.604Z,21.37
2023-02-09T07:01:55.261Z,24.97
2023-02-09T07:04:22.961Z,21.90
2023-02-09T07:06:50.012Z,21.53
2023-02-09T07:09:17.069Z,21.23
2023-02-09T07:11:44.172Z,20.37
2023-02-09T07:14:11.318Z,20.77
2023-02-09T07:16:38.506Z,19.90
2023-02-09T07:19:05.611Z,21.20
2023-02-09T07:21:32.716Z,21.23
2023-02-09T07:23:59.841Z,22.93
2023-02-09T07:26:26.967Z,20.47
2023-02-09T07:28:54.013Z,22.87
2023-02-09T07:31:21.294Z,21.17
2023-02-09T07:33:48.477Z,22.70
2023-02-09T07:36:16.920Z,20.60
2023-02-09T07:38:44.925Z,20.20
2023-02-09T07:41:20.693Z,21.07
2023-02-09T07:43:47.942Z,20.17
2023-02-09T07:46:17.800Z,20.33
2023-02-09T07:48:45.107Z,23.93
2023-02-09T07:51:25.176Z,20.50
2023-02-09T07:53:53.593Z,21.13
2023-02-09T07:56:20.915Z,21.63
2023-02-09T07:58:48.327Z,20.93
2023-02-09T08:01:16.801Z,22.17
2023-02-09T08:03:46.978Z,22.73
2023-02-09T08:06:45.238Z,22.20
2023-02-09T08:09:16.605Z,22.30
2023-02-09T08:11:59.253Z,21.67
2023-02-09T08:14:31.791Z,24.87
2023-02-09T08:17:20.409Z,22.80
2023-02-09T08:19:54.732Z,22.47
2023-02-09T08:22:25.511Z,21.67
2023-02-09T08:24:53.226Z,21.67
2023-02-09T08:27:20.452Z,24.17
2023-02-09T08:29:49.064Z,23.00
2023-02-09T08:32:16.294Z,22.57
2023-02-09T08:34:43.384Z,22.87
2023-02-09T08:37:10.429Z,22.23
2023-02-09T08:39:37.511Z,24.80
2023-02-09T08:42:04.591Z,25.20
2023-02-09T08:44:31.832Z,23.53
2023-02-09T08:46:59.074Z,24.37
2023-02-09T08:49:26.282Z,25.83
2023-02-09T08:51:53.653Z,24.30
2023-02-09T08:54:20.876Z,23.80
2023-02-09T08:56:47.975Z,23.70
2023-02-09T08:59:15.429Z,24.77
2023-02-09T09:01:42.858Z,21.63
2023-02-09T09:04:10.550Z,22.27
2023-02-09T09:06:37.618Z,22.50
2023-02-09T09:09:04.803Z,21.73
2023-02-09T09:11:32.179Z,21.57
2023-02-09T09:13:59.366Z,21.60
2023-02-09T09:16:26.522Z,20.93
2023-02-09T09:18:53.545Z,21.07
2023-02-09T09:21:20.654Z,21.10
2023-02-09T09:23:48.965Z,22.00
2023-02-09T09:26:17.853Z,22.67
2023-02-09T09:28:45.395Z,20.13
2023-02-09T09:31:18.111Z,21.43
2023-02-09T09:33:45.727Z,22.73
2023-02-09T09:36:14.749Z,23.23
2023-02-09T09:38:42.536Z,20.73
2023-02-09T09:41:29.205Z,21.30
2023-02-09T09:43:57.071Z,21.50
2023-02-09T09:46:40.331Z,21.57
2023-02-09T09:49:26.654Z,21.63
2023-02-09T09:52:20.204Z,20.67
2023-02-09T09:54:47.542Z,21.40
2023-02-09T09:57:38.437Z,22.43
2023-02-09T10:00:28.443Z,21.63
2023-02-09T10:02:55.638Z,21.73
2023-02-09T10:05:30.153Z,23.23
2023-02-09T10:08:10.686Z,22.73
2023-02-09T10:11:06.528Z,22.43
2023-02-09T10:13:53.371Z,22.17
2023-02-09T10:16:30.471Z,21.77
2023-02-09T10:19:18.657Z,22.60
2023-02-09T10:21:45.883Z,21.30
2023-02-09T10:24:28.569Z,21.47
2023-02-09T10:27:24.833Z,21.47
2023-02-09T10:29:51.990Z,21.67
2023-02-09T10:32:37.188Z,21.73
2023-02-09T10:35:26.239Z,21.17
2023-02-09T10:38:02.428Z,20.83
2023-02-09T10:40:32.806Z,20.17
2023-02-09T10:43:03.862Z,18.83
2023-02-09T10:45:42.584Z,18.97
2023-02-09T10:48:12.762Z,20.60
2023-02-09T10:50:49.303Z,18.80
2023-02-09T10:53:36.597Z,18.27
2023-02-09T10:56:24.272Z,18.00
2023-02-09T10:59:04.469Z,17.43
2023-02-09T11:01:42.260Z,17.87
2023-02-09T11:04:23.734Z,17.40
2023-02-09T11:07:00.440Z,15.30
2023-02-09T11:09:31.005Z,16.20
2023-02-09T11:11:58.339Z,16.40
2023-02-09T11:14:25.708Z,17.33
2023-02-09T11:17:36.603Z,17.87
2023-02-09T11:20:35.694Z,17.23
2023-02-09T11:23:36.459Z,15.73
2023-02-09T11:26:31.374Z,16.77
2023-02-09T11:29:02.628Z,14.50
2023-02-09T11:31:54.632Z,15.80
2023-02-09T11:34:47.103Z,13.60
2023-02-09T11:37:33.001Z,13.93
2023-02-09T11:40:08.226Z,14.40
2023-02-09T11:42:46.485Z,15.47
2023-02-09T11:45:21.526Z,15.00
2023-02-09T11:48:10.975Z,15.23
2023-02-09T11:50:59.245Z,14.77
2023-02-09T11:53:47.821Z,13.47
2023-02-09T11:56:22.656Z,14.70
2023-02-09T11:59:07.585Z,13.50
2023-02-09T12:02:04.939Z,13.40
2023-02-09T12:04:48.699Z,15.03
2023-02-09T12:07:55.259Z,15.80
2023-02-09T12:10:42.409Z,14.10
2023-02-09T12:13:19.678Z,14.03
2023-02-09T12:16:18.151Z,13.33
2023-02-09T12:18:46.580Z,13.50
2023-02-09T12:21:13.892Z,13.37
2023-02-09T12:23:45.404Z,14.90
2023-02-09T12:26:12.393Z,14.53
2023-02-09T12:28:53.162Z,14.83
2023-02-09T12:31:26.573Z,13.90
2023-02-09T12:33:59.798Z,13.97
2023-02-09T12:36:32.721Z,13.10
2023-02-09T12:39:25.652Z,12.60
2023-02-09T12:41:56.118Z,13.90
2023-02-09T12:44:23.102Z,13.17
2023-02-09T12:46:54.603Z,11.97
2023-02-09T12:49:33.511Z,12.37
2023-02-09T12:52:03.559Z,12.10
2023-02-09T12:54:42.491Z,12.90
2023-02-09T12:57:15.705Z,12.07
2023-02-09T13:00:05.669Z,12.57
2023-02-09T13:02:40.092Z,11.87
2023-02-09T13:05:25.805Z,11.67
2023-02-09T13:08:11.566Z,10.60
2023-02-09T13:10:42.763Z,10.37
2023-02-09T13:13:12.806Z,10.90
2023-02-09T13:16:29.037Z,10.47
2023-02-09T13:19:20.986Z,10.67
2023-02-09T13:22:06.651Z,10.80
2023-02-09T13:24:35.897Z,10.90
2023-02-09T13:27:13.086Z,10.50
2023-02-09T13:29:53.645Z,9.87
2023-02-09T13:33:11.719Z,11.20
2023-02-09T13:36:25.200Z,11.23
2023-02-09T13:38:53.175Z,9.77
2023-02-09T13:41:40.780Z,12.30
2023-02-09T13:44:30.147Z,10.73
2023-02-09T13:47:02.335Z,11.50
2023-02-09T13:49:30.436Z,11.37
2023-02-09T13:52:23.521Z,11.33
2023-02-09T13:54:52.832Z,10.80
2023-02-09T13:57:29.947Z,10.53
2023-02-09T14:00:08.821Z,10.60
2023-02-09T14:03:18.119Z,10.47
2023-02-09T14:05:53.770Z,11.00
2023-02-09T14:08:22.235Z,10.83
2023-02-09T14:11:41.491Z,11.20
2023-02-09T14:14:18.621Z,9.90
2023-02-09T14:16:53.591Z,10.83
2023-02-09T14:19:48.676Z,10.20
2023-02-09T14:22:37.486Z,11.67
2023-02-09T14:25:13.601Z,10.77
2023-02-09T14:27:46.949Z,10.67
2023-02-09T14:30:32.218Z,15.43
2023-02-09T14:33:03.439Z,11.00
2023-02-09T14:35:39.344Z,12.17
2023-02-09T14:38:36.834Z,10.80
2023-02-09T14:41:29.956Z,10.47
2023-02-09T14:44:06.213Z,10.53
2023-02-09T14:47:01.286Z,11.57
2023-02-09T14:49:29.634Z,9.87
2023-02-09T14:52:14.092Z,11.10
2023-02-09T14:54:47.835Z,11.93
2023-02-09T14:57:15.258Z,11.77
2023-02-09T14:59:42.487Z,11.40
2023-02-09T15:02:19.243Z,11.77
2023-02-09T15:04:47.295Z,12.43
2023-02-09T15:07:21.248Z,11.90
2023-02-09T15:09:49.344Z,13.47
2023-02-09T15:12:26.878Z,13.67
2023-02-09T15:14:58.692Z,13.10
2023-02-09T15:17:29.407Z,13.43
2023-02-09T15:19:58.523Z,13.47
2023-02-09T15:22:26.170Z,14.77
2023-02-09T15:24:54.676Z,13.43
2023-02-09T15:27:42.414Z,14.50
2023-02-09T15:30:28.139Z,16.27
2023-02-09T15:32:55.516Z,13.13
2023-02-09T15:35:26.040Z,12.83
2023-02-09T15:37:56.635Z,13.13
2023-02-09T15:41:03.639Z,13.50
2023-02-09T15:43:49.496Z,15.13
2023-02-09T15:46:35.466Z,15.33
2023-02-09T15:49:03.268Z,15.87
2023-02-09T15:51:34.142Z,16.07
2023-02-09T15:54:08.047Z,15.33
2023-02-09T15:56:37.425Z,15.63
2023-02-09T15:59:05.674Z,14.80
2023-02-09T16:01:33.999Z,15.40
2023-02-09T16:04:13.856Z,17.07
2023-02-09T16:06:47.653Z,17.07
2023-02-09T16:09:22.852Z,15.47
2023-02-09T16:11:50.168Z,15.63
2023-02-09T16:14:23.506Z,15.50
2023-02-09T16:16:50.834Z,25.73
2023-02-09T16:19:18.876Z,28.73
2023-02-09T16:21:56.521Z,30.17
2023-02-09T16:24:45.544Z,24.50
2023-02-09T16:27:23.496Z,22.07
2023-02-09T16:29:50.717Z,23.63
2023-02-09T16:32:22.482Z,21.60
2023-02-09T16:34:50.967Z,20.27
2023-02-09T16:37:29.233Z,18.13
2023-02-09T16:39:58.286Z,17.70
2023-02-09T16:42:25.738Z,18.43
2023-02-09T16:44:53.301Z,17.53
2023-02-09T16:47:32.370Z,18.93
2023-02-09T16:50:04.086Z,19.83
2023-02-09T16:52:31.418Z,19.87
2023-02-09T16:55:01.737Z,60.00
2023-02-09T16:57:29.327Z,52.30
2023-02-09T16:59:56.607Z,58.73
2023-02-09T17:02:33.286Z,101.40
2023-02-09T17:05:03.585Z,17.87
2023-02-09T17:07:48.702Z,19.50
2023-02-09T17:10:23.671Z,18.67
2023-02-09T17:12:53.242Z,21.07
2023-02-09T17:15:31.780Z,23.27
2023-02-09T17:18:04.718Z,23.50
2023-02-09T17:20:43.287Z,23.67
2023-02-09T17:23:19.113Z,32.63
2023-02-09T17:25:47.295Z,31.63
2023-02-09T17:28:15.137Z,27.17
2023-02-09T17:30:43.036Z,22.60
2023-02-09T17:33:19.417Z,22.47
2023-02-09T17:36:17.612Z,22.97
2023-02-09T17:38:38.462Z,24.60
2023-02-09T17:41:16.074Z,23.80
2023-02-09T17:43:43.739Z,23.60
2023-02-09T17:46:18.736Z,28.07
2023-02-09T17:48:48.058Z,23.20
2023-02-09T17:51:24.099Z,23.70
2023-02-09T17:53:51.231Z,20.27
2023-02-09T17:56:19.400Z,21.23
2023-02-09T17:58:47.276Z,19.73
2023-02-09T18:01:27.726Z,20.77
2023-02-09T18:04:02.009Z,19.73
2023-02-09T18:06:40.833Z,20.20
2023-02-09T18:09:12.239Z,19.50
2023-02-09T18:11:41.057Z,18.13
2023-02-09T18:14:12.292Z,20.43
2023-02-09T18:16:41.365Z,17.77
2023-02-09T18:19:10.555Z,23.07
2023-02-09T18:21:38.510Z,19.87
2023-02-09T18:24:06.615Z,18.03
2023-02-09T18:26:34.017Z,17.37
2023-02-09T18:29:01.057Z,19.77
2023-02-09T18:31:28.199Z,17.47
2023-02-09T18:33:55.352Z,19.20
2023-02-09T18:36:22.561Z,18.53
2023-02-09T18:38:50.994Z,20.20
2023-02-09T18:41:18.158Z,18.07
2023-02-09T18:43:45.234Z,18.33
2023-02-09T18:46:14.926Z,18.20
2023-02-09T18:48:42.173Z,18.97
2023-02-09T18:51:10.522Z,17.67
2023-02-09T18:53:39.930Z,18.13
2023-02-09T18:56:07.135Z,16.93
2023-02-09T18:58:34.350Z,14.73
2023-02-09T19:01:01.464Z,15.17
2023-02-09T19:03:28.533Z,16.27
2023-02-09T19:05:55.532Z,15.53
2023-02-09T19:08:22.641Z,16.30
2023-02-09T19:10:49.706Z,16.07
2023-02-09T19:13:16.803Z,15.83
2023-02-09T19:15:44.011Z,15.93
2023-02-09T19:18:11.234Z,15.87
2023-02-09T19:20:38.686Z,15.97
2023-02-09T19:23:07.648Z,17.30
2023-02-09T19:25:34.916Z,15.40
2023-02-09T19:28:02.072Z,16.13
2023-02-09T19:30:29.213Z,17.07
2023-02-09T19:32:59.987Z,17.67
2023-02-09T19:35:29.288Z,18.23
2023-02-09T19:37:58.047Z,17.80
2023-02-09T19:40:36.333Z,16.93
2023-02-09T19:43:05.986Z,17.43
2023-02-09T19:45:36.666Z,16.50
2023-02-09T19:48:08.031Z,17.43
2023-02-09T19:50:37.014Z,17.13
2023-02-09T19:53:06.442Z,16.83
2023-02-09T19:55:34.076Z,17.00
2023-02-09T19:58:01.167Z,16.23
2023-02-09T20:00:28.309Z,15.20
2023-02-09T20:02:55.584Z,17.73
2023-02-09T20:05:22.663Z,17.23
2023-02-09T20:07:49.897Z,21.67
2023-02-09T20:10:17.042Z,22.00
2023-02-09T20:15:12.169Z,22.87
2023-02-09T20:17:39.342Z,22.23
2023-02-09T20:20:07.197Z,21.57
2023-02-09T20:22:35.074Z,23.30
2023-02-09T20:25:02.152Z,21.37
2023-02-09T20:27:29.272Z,19.70
2023-02-09T20:30:01.430Z,14.33
2023-02-09T20:32:29.340Z,16.07
2023-02-09T20:34:56.935Z,16.10
2023-02-09T20:37:24.249Z,16.33
2023-02-09T20:39:51.334Z,14.73
2023-02-09T20:42:37.160Z,15.67
2023-02-09T20:45:23.592Z,16.53
2023-02-09T20:47:50.713Z,15.93
2023-02-09T20:50:20.047Z,17.13
2023-02-09T20:52:47.151Z,14.50
2023-02-09T20:55:14.247Z,36.63
2023-02-09T20:57:41.577Z,52.40
2023-02-09T21:00:09.831Z,81.03
2023-02-09T21:02:38.726Z,90.83
2023-02-09T21:05:06.098Z,79.53
2023-02-09T21:07:34.130Z,105.13
2023-02-09T21:10:01.403Z,74.40
2023-02-09T21:12:28.513Z,58.37
2023-02-09T21:14:56.591Z,80.47
2023-02-09T21:17:23.701Z,80.87
2023-02-09T21:19:50.827Z,85.47
2023-02-09T21:22:17.945Z,77.33
2023-02-09T21:24:45.325Z,77.13
2023-02-09T21:27:13.703Z,83.17
2023-02-09T21:29:40.913Z,64.03
2023-02-09T21:32:08.631Z,64.00
2023-02-09T21:34:36.596Z,61.23
2023-02-09T21:37:03.696Z,61.17
2023-02-09T21:39:31.549Z,65.07
2023-02-09T21:42:17.073Z,49.40
2023-02-09T21:44:44.098Z,54.43
2023-02-09T21:47:11.450Z,57.07
2023-02-09T21:49:38.554Z,42.03
2023-02-09T21:52:07.474Z,39.07
2023-02-09T21:54:34.661Z,54.20
2023-02-09T21:57:02.077Z,65.20
2023-02-09T21:59:30.301Z,52.30
2023-02-09T22:04:42.601Z,41.63
2023-02-09T22:07:12.329Z,64.33
2023-02-09T22:09:39.641Z,57.73
2023-02-09T22:12:07.431Z,49.30
2023-02-09T22:14:34.510Z,41.27
2023-02-09T22:17:01.620Z,16.03
2023-02-09T22:19:28.662Z,42.80
2023-02-09T22:21:58.025Z,42.87
2023-02-09T22:24:25.779Z,34.53
2023-02-09T22:26:53.549Z,22.43
2023-02-09T22:29:20.607Z,33.53
2023-02-09T22:31:48.121Z,16.70
2023-02-09T22:34:15.718Z,15.70
2023-02-09T22:36:42.777Z,15.97
2023-02-09T22:39:09.869Z,16.53
2023-02-09T22:41:37.652Z,15.77
2023-02-09T22:44:08.420Z,14.90
2023-02-09T22:46:39.012Z,14.80
2023-02-09T22:49:16.588Z,16.23
2023-02-09T22:51:44.521Z,17.93
2023-02-09T22:54:14.881Z,14.80
2023-02-09T22:56:42.296Z,15.10
2023-02-09T22:59:12.856Z,15.43
2023-02-09T23:01:40.476Z,14.30
2023-02-09T23:04:07.679Z,16.63
2023-02-09T23:06:34.958Z,17.23
2023-02-09T23:09:05.756Z,16.23
2023-02-09T23:11:33.077Z,15.10
2023-02-09T23:14:10.497Z,13.47
2023-02-09T23:16:40.148Z,13.20
2023-02-09T23:19:12.868Z,13.53
2023-02-09T23:21:43.939Z,14.57
2023-02-09T23:24:11.839Z,12.97
2023-02-09T23:26:39.616Z,13.20
2023-02-09T23:29:10.374Z,13.20
2023-02-09T23:31:38.722Z,12.90
2023-02-09T23:34:05.876Z,12.33
2023-02-09T23:36:34.863Z,13.87
2023-02-09T23:39:06.049Z,13.33
2023-02-09T23:41:34.708Z,14.27
2023-02-09T23:44:02.732Z,12.63
2023-02-09T23:46:29.960Z,14.10
2023-02-09T23:48:58.007Z,14.53
2023-02-09T23:51:29.807Z,13.00
2023-02-09T23:54:00.207Z,14.67
2023-02-09T23:56:29.883Z,13.90
2023-02-09T23:58:56.964Z,13.47
